Time;durP1;ratioP1;P1;durP2;ratioP2;P2;SDS_P1;SDS_P2;PMS_P1;PMS_P2;Temp;Humidity;BMP_temperature;BMP_pressure;BME280_temperature;BME280_humidity;BME280_pressure;Samples;Min_cycle;Max_cycle;Signal;HPM_P1;HPM_P2
2022/05/25 00:00:16;;;;;;;0.50;0.30;;;11.80;1.40;;;13.01;100.00;95005.38;647212;216;31469;-75
2022/05/25 00:02:56;;;;;;;0.40;0.40;;;11.80;1.40;;;13.09;100.00;94998.09;646712;212;31464;-75
2022/05/25 00:05:38;;;;;;;0.60;0.50;;;11.80;1.40;;;13.01;100.00;94993.58;646532;216;42123;-75
2022/05/25 00:08:20;;;;;;;0.57;0.47;;;11.80;1.40;;;12.97;100.00;94990.98;644020;216;31508;-75
2022/05/25 00:11:05;;;;;;;0.70;0.40;;;11.80;1.40;;;13.05;100.00;94990.16;646592;216;31855;-75
2022/05/25 00:13:46;;;;;;;0.40;0.28;;;11.90;1.40;;;13.07;100.00;94985.90;618085;222;42601;-75
2022/05/25 00:16:28;;;;;;;0.40;0.30;;;11.90;1.40;;;13.18;100.00;94982.05;619448;226;31837;-75
2022/05/25 00:21:57;;;;;;;0.80;0.80;;;11.80;1.40;;;12.93;100.00;94974.52;646711;212;32033;-74
2022/05/25 00:24:39;;;;;;;0.40;0.40;;;11.70;1.40;;;12.87;100.00;94972.16;646599;212;32123;-74
2022/05/25 00:27:20;;;;;;;0.60;0.40;;;11.70;1.40;;;13.00;100.00;94973.84;645742;216;31511;-74
2022/05/25 00:30:02;;;;;;;0.50;0.30;;;11.70;1.40;;;12.99;100.00;94977.52;645696;212;42113;-74
2022/05/25 00:32:44;;;;;;;1.40;0.90;;;11.80;1.40;;;13.05;100.00;94976.73;620796;226;31863;-74
2022/05/25 00:35:51;;;;;;;0.70;0.43;;;11.80;1.40;;;13.04;100.00;94975.28;646895;216;31545;-74
2022/05/25 00:38:32;;;;;;;1.17;0.75;;;11.80;1.40;;;13.01;100.00;94972.27;645855;216;31783;-75
2022/05/25 00:41:14;;;;;;;0.40;0.20;;;11.80;1.40;;;12.98;100.00;94959.05;620612;226;31825;-75
2022/05/25 00:43:59;;;;;;;0.50;0.50;;;11.80;1.40;;;13.00;100.00;94961.06;646598;216;43787;-74
2022/05/25 00:46:40;;;;;;;1.10;0.90;;;11.80;1.40;;;13.04;100.00;94955.97;644913;216;42662;-75
2022/05/25 00:49:28;;;;;;;1.10;0.50;;;11.80;1.40;;;13.03;100.00;94957.70;646349;216;31582;-75
2022/05/25 00:52:10;;;;;;;1.20;0.60;;;11.80;1.40;;;13.05;100.00;94960.11;647820;216;31474;-75
2022/05/25 00:54:52;;;;;;;0.70;0.50;;;11.80;1.40;;;13.08;100.00;94965.45;645228;216;42883;-74
2022/05/25 00:57:36;;;;;;;0.40;0.30;;;11.80;1.40;;;13.08;100.00;94967.58;646353;216;42100;-74
2022/05/25 01:00:20;;;;;;;1.10;0.40;;;11.90;1.40;;;13.01;100.00;94973.86;647054;216;31466;-74
2022/05/25 01:03:04;;;;;;;0.50;0.40;;;11.90;1.40;;;12.88;100.00;94985.67;645782;216;31842;-74
2022/05/25 01:05:47;;;;;;;0.70;0.50;;;11.80;1.40;;;12.92;100.00;94993.11;646990;212;42105;-75
2022/05/25 01:08:39;;;;;;;0.50;0.40;;;11.80;1.40;;;12.89;100.00;94998.98;646085;212;42284;-75
2022/05/25 01:11:21;;;;;;;0.50;0.40;;;11.80;1.40;;;12.84;100.00;95000.21;647500;216;31474;-74
2022/05/25 01:14:24;;;;;;;0.50;0.30;;;11.80;1.40;;;12.88;100.00;94999.46;646662;216;40882;-75
2022/05/25 01:17:24;;;;;;;0.40;0.30;;;11.80;1.40;;;12.85;100.00;95005.26;646048;216;38984;-74
2022/05/25 01:20:27;;;;;;;0.97;0.57;;;11.80;1.40;;;12.87;100.00;95001.28;619796;226;31851;-74
2022/05/25 01:26:13;;;;;;;0.50;0.37;;;11.80;1.40;;;12.96;100.00;95000.77;645532;216;31479;-75
2022/05/25 01:29:10;;;;;;;0.40;0.40;;;11.90;1.40;;;12.97;100.00;95008.58;646384;216;39929;-75
2022/05/25 01:31:55;;;;;;;0.50;0.40;;;11.90;1.40;;;12.97;100.00;95009.56;645550;216;40034;-73
2022/05/25 01:35:52;;;;;;;0.50;0.50;;;11.90;1.40;;;12.99;100.00;95002.66;646001;212;31522;-75
2022/05/25 01:38:40;;;;;;;11.50;0.70;;;11.90;1.40;;;13.02;100.00;95000.56;619688;226;42452;-74
2022/05/25 01:41:37;;;;;;;0.50;0.30;;;11.90;1.40;;;13.07;100.00;95000.34;647692;212;31571;-74
2022/05/25 01:44:21;;;;;;;0.50;0.20;;;11.90;1.40;;;13.06;100.00;95005.48;646608;212;31508;-75
2022/05/25 01:47:03;;;;;;;0.65;0.37;;;11.90;1.40;;;13.12;100.00;95012.05;618437;222;31844;-74
2022/05/25 01:49:51;;;;;;;0.60;0.40;;;11.90;1.40;;;12.91;100.00;95013.80;646326;212;42656;-74
2022/05/25 01:52:33;;;;;;;0.40;0.40;;;11.90;1.40;;;12.92;100.00;95011.00;619046;226;31862;-74
2022/05/25 01:55:15;;;;;;;0.52;0.40;;;11.90;1.40;;;12.92;100.00;95016.34;646523;216;31513;-74
2022/05/25 01:57:57;;;;;;;0.60;0.35;;;11.80;1.40;;;12.98;100.00;95021.25;646320;212;43680;-76
2022/05/25 02:00:39;;;;;;;1.30;0.80;;;11.90;1.40;;;12.97;100.00;95022.98;647665;212;33432;-74
2022/05/25 02:06:30;;;;;;;1.33;1.23;;;11.90;1.40;;;13.12;100.00;95020.47;620047;225;31805;-75
2022/05/25 02:09:21;;;;;;;0.50;0.40;;;11.90;1.40;;;13.05;100.00;95006.28;640858;216;42274;-75
2022/05/25 02:12:40;;;;;;;1.20;0.50;;;11.80;1.40;;;13.01;100.00;95005.91;646557;212;42579;-75
2022/05/25 02:15:50;;;;;;;0.90;0.30;;;11.80;1.40;;;12.84;100.00;95014.83;647450;216;31475;-75
2022/05/25 02:18:34;;;;;;;0.90;0.50;;;11.80;1.40;;;12.90;100.00;95022.51;619435;222;33744;-75
2022/05/25 02:21:17;;;;;;;1.10;0.50;;;11.80;1.40;;;12.87;100.00;95028.43;619824;226;31792;-75
2022/05/25 02:24:09;;;;;;;0.60;0.50;;;11.80;1.40;;;12.87;100.00;95036.22;647191;216;42147;-76
2022/05/25 02:26:52;;;;;;;0.40;0.30;;;11.80;1.40;;;12.87;100.00;95030.99;619070;226;32838;-75
2022/05/25 02:29:38;;;;;;;0.70;0.50;;;11.80;1.40;;;12.86;100.00;95032.41;646815;216;42185;-75
2022/05/25 02:32:21;;;;;;;1.10;0.70;;;11.80;1.40;;;12.82;100.00;95032.68;647643;216;42503;-75
2022/05/25 02:35:51;;;;;;;0.50;0.47;;;11.80;1.40;;;12.81;100.00;95031.08;646490;216;31740;-76
2022/05/25 02:38:37;;;;;;;0.40;0.30;;;11.80;1.40;;;12.81;100.00;95030.17;646923;216;42149;-76
2022/05/25 02:41:26;;;;;;;0.50;0.40;;;11.80;1.40;;;12.74;100.00;95026.02;647152;216;42371;-76
2022/05/25 02:44:07;;;;;;;1.52;0.50;;;11.70;1.40;;;12.66;100.00;95025.39;646651;216;42106;-76
2022/05/25 02:46:49;;;;;;;0.60;0.30;;;11.70;1.40;;;12.67;100.00;95026.36;645240;212;42112;-76
2022/05/25 02:49:30;;;;;;;;;;;11.70;1.40;;;12.69;100.00;95033.00;652951;212;24847;-76
2022/05/25 02:52:12;;;;;;;;;;;11.70;1.40;;;12.63;100.00;95034.66;653131;216;24820;-75
2022/05/25 02:54:53;;;;;;;;;;;11.70;1.40;;;12.67;100.00;95045.78;652423;216;25334;-76
2022/05/25 02:57:39;;;;;;;;;;;11.80;1.40;;;12.68;100.00;95046.03;649331;215;24815;-78
2022/05/25 03:00:29;;;;;;;;;;;11.70;1.40;;;12.65;100.00;95049.17;652116;216;26247;-76
2022/05/25 03:03:16;;;;;;;;;;;11.70;1.40;;;12.60;100.00;95051.58;650305;216;24819;-79
2022/05/25 03:06:04;;;;;;;;;;;11.70;1.40;;;12.58;100.00;95055.44;654126;216;25626;-76
2022/05/25 03:08:46;;;;;;;;;;;11.60;1.40;;;12.55;100.00;95058.16;653057;216;24728;-76
2022/05/25 03:11:27;;;;;;;;;;;11.60;1.40;;;12.55;100.00;95060.63;653973;216;25731;-76
2022/05/25 03:14:08;;;;;;;;;;;11.60;1.40;;;12.55;100.00;95062.07;652728;212;24916;-77
2022/05/25 03:16:58;;;;;;;;;;;11.70;1.40;;;12.55;100.00;95067.08;650446;217;24992;-78
2022/05/25 03:19:39;;;;;;;;;;;11.70;1.40;;;12.55;100.00;95064.55;653214;216;24967;-76
2022/05/25 03:22:23;;;;;;;;;;;11.60;1.40;;;12.53;100.00;95068.59;649104;216;25380;-77
2022/05/25 03:25:05;;;;;;;;;;;11.60;1.40;;;12.54;100.00;95069.55;653742;216;24835;-76
2022/05/25 03:27:47;;;;;;;;;;;11.60;1.40;;;12.54;100.00;95070.89;649971;216;25263;-77
2022/05/25 03:30:28;;;;;;;;;;;11.60;1.40;;;12.58;100.00;95085.53;652650;216;24820;-76
2022/05/25 03:35:51;;;;;;;;;;;11.60;1.40;;;12.43;100.00;95085.92;652678;212;24810;-76
2022/05/25 03:38:34;;;;;;;;;;;11.60;1.40;;;12.42;100.00;95086.64;653901;216;24723;-78
2022/05/25 03:41:23;;;;;;;;;;;11.60;1.40;;;12.43;100.00;95090.86;653459;216;24825;-75
2022/05/25 03:44:03;;;;;;;;;;;11.60;1.40;;;12.41;100.00;95094.13;652728;216;24823;-76
2022/05/25 03:46:44;;;;;;;;;;;11.60;1.40;;;12.40;100.00;95099.52;648387;217;24917;-75
2022/05/25 03:49:26;;;;;;;;;;;11.60;1.40;;;12.42;100.00;95101.89;652353;212;24828;-76
2022/05/25 03:52:07;;;;;;;;;;;11.70;1.40;;;12.41;100.00;95103.45;652327;216;25343;-75
2022/05/25 03:54:48;;;;;;;;;;;11.70;1.40;;;12.41;100.00;95107.34;652812;216;24487;-75
2022/05/25 03:57:29;;;;;;;;;;;11.70;1.40;;;12.47;100.00;95112.73;654069;216;24820;-75
2022/05/25 04:00:17;;;;;;;;;;;11.70;1.40;;;12.49;100.00;95109.19;649135;217;24820;-79
2022/05/25 04:03:04;;;;;;;;;;;11.70;1.40;;;12.47;100.00;95111.38;652682;216;24832;-74
2022/05/25 04:05:46;;;;;;;;;;;11.80;1.40;;;12.50;100.00;95116.14;653733;216;24823;-74
2022/05/25 04:08:33;;;;;;;;;;;11.80;1.40;;;12.56;100.00;95116.49;654036;216;24910;-74
2022/05/25 04:11:14;;;;;;;;;;;11.80;1.40;;;12.56;100.00;95117.64;654440;216;24823;-74
2022/05/25 04:13:56;;;;;;;;;;;11.80;1.40;;;12.59;100.00;95115.34;654415;216;24827;-73
2022/05/25 04:16:37;;;;;;;;;;;11.90;1.40;;;12.64;100.00;95130.91;653043;216;24907;-74
2022/05/25 04:19:19;;;;;;;;;;;11.90;1.40;;;12.69;100.00;95125.37;653171;212;25300;-80
2022/05/25 04:22:06;;;;;;;;;;;11.90;1.40;;;12.71;100.00;95125.78;653293;212;24717;-75
2022/05/25 04:24:47;;;;;;;;;;;11.90;1.40;;;12.73;100.00;95127.12;652800;212;24823;-74
2022/05/25 04:27:35;;;;;;;;;;;11.90;1.40;;;12.73;100.00;95128.17;654099;212;25306;-77
2022/05/25 04:30:18;;;;;;;;;;;11.90;1.40;;;12.66;100.00;95132.00;652752;216;24771;-74
2022/05/25 04:32:59;;;;;;;;;;;11.90;1.40;;;12.66;100.00;95139.28;653721;216;24845;-74
2022/05/25 04:35:51;;;;;;;1.05;0.90;;;11.90;1.40;;;12.66;100.00;95142.98;617678;222;42522;-73
2022/05/25 04:38:33;;;;;;;;;;;11.90;1.40;;;12.63;100.00;95140.89;653731;216;25298;-74
2022/05/25 04:41:14;;;;;;;;;;;11.80;1.40;;;12.63;100.00;95145.30;652988;212;24805;-74
2022/05/25 04:43:58;;;;;;;;;;;11.80;1.40;;;12.59;100.00;95148.63;653834;216;25042;-74
2022/05/25 04:46:40;;;;;;;;;;;11.80;1.40;;;12.53;100.00;95156.83;652681;216;24818;-75
2022/05/25 04:49:26;;;;;;;;;;;11.80;1.40;;;12.54;100.00;95154.19;653297;216;25213;-75
2022/05/25 04:52:05;;;;;;;;;;;11.70;1.40;;;12.50;100.00;95152.87;652875;216;24915;-75
2022/05/25 04:54:47;;;;;;;;;;;11.70;1.40;;;12.49;100.00;95156.98;653318;216;25387;-74
2022/05/25 04:57:28;;;;;;;;;;;11.70;1.40;;;12.42;100.00;95163.77;653818;212;24809;-75
2022/05/25 05:00:13;;;;;;;;;;;11.70;1.40;;;12.43;100.00;95165.81;653486;216;25414;-74
2022/05/25 05:02:54;;;;;;;;;;;11.60;1.40;;;12.41;100.00;95171.69;652788;216;25350;-75
2022/05/25 05:05:38;;;;;;;;;;;11.70;1.40;;;12.40;100.00;95175.95;653892;212;24729;-78
2022/05/25 05:08:25;;;;;;;;;;;11.60;1.40;;;12.42;100.00;95183.25;647006;220;24913;-75
2022/05/25 05:11:10;;;;;;;;;;;11.60;1.40;;;12.40;100.00;95186.35;647912;217;24731;-75
2022/05/25 05:13:52;;;;;;;;;;;11.70;1.40;;;12.40;100.00;95194.22;648749;216;25632;-74
2022/05/25 05:16:33;;;;;;;;;;;11.70;1.40;;;12.44;100.00;95199.59;652503;216;24834;-75
2022/05/25 05:19:14;;;;;;;;;;;11.70;1.40;;;12.44;100.00;95202.21;652565;212;24864;-75
2022/05/25 05:21:59;;;;;;;;;;;11.70;1.40;;;12.46;100.00;95209.30;652153;216;25299;-75
2022/05/25 05:24:40;;;;;;;;;;;11.80;1.40;;;12.48;100.00;95216.28;653108;216;24734;-74
2022/05/25 05:27:21;;;;;;;;;;;11.80;1.40;;;12.56;100.00;95221.13;648607;214;24820;-74
2022/05/25 05:30:03;;;;;;;;;;;11.80;1.40;;;12.53;100.00;95224.73;653806;212;24836;-74
2022/05/25 05:32:44;;;;;;;;;;;11.80;1.40;;;12.51;100.00;95236.25;652682;212;24913;-76
2022/05/25 05:35:51;;;;;;;2.67;1.12;;;11.80;1.40;;;12.60;100.00;95235.64;645953;212;31520;-74
2022/05/25 05:38:35;;;;;;;3.20;1.50;;;11.90;1.40;;;12.61;100.00;95241.87;646431;213;31536;-78
2022/05/25 05:41:22;;;;;;;;;;;11.90;1.40;;;12.57;100.00;95251.45;652444;216;24833;-73
2022/05/25 05:44:04;;;;;;;;;;;11.90;1.40;;;12.61;100.00;95256.64;654336;216;24950;-74
2022/05/25 05:46:48;;;;;;;;;;;11.90;1.40;;;12.58;100.00;95267.26;654026;212;24838;-74
2022/05/25 05:49:35;;;;;;;;;;;11.80;1.40;;;12.52;100.00;95269.02;653470;216;24817;-77
2022/05/25 05:52:19;;;;;;;;;;;11.80;1.40;;;12.38;100.00;95275.66;653767;212;24837;-74
2022/05/25 05:55:00;;;;;;;;;;;11.70;1.40;;;12.33;100.00;95287.61;651833;216;25512;-73
2022/05/25 05:57:41;;;;;;;;;;;11.60;1.40;;;12.36;100.00;95286.30;652053;216;24827;-74
2022/05/25 06:00:23;;;;;;;;;;;11.60;1.40;;;12.30;100.00;95293.09;652722;216;24770;-74
2022/05/25 06:03:04;;;;;;;;;;;11.50;1.40;;;12.30;100.00;95299.01;652890;212;24816;-73
2022/05/25 06:05:45;;;;;;;;;;;11.60;1.40;;;12.30;100.00;95299.28;653598;212;24720;-74
2022/05/25 06:08:29;;;;;;;;;;;11.50;1.40;;;12.26;100.00;95301.82;653382;216;24827;-74
2022/05/25 06:11:08;;;;;;;;;;;11.50;1.40;;;12.26;100.00;95303.11;652037;216;24849;-74
2022/05/25 06:13:49;;;;;;;;;;;11.50;1.40;;;12.25;100.00;95308.65;653605;216;25143;-74
2022/05/25 06:22:08;;;;;;;;;;;11.60;1.40;;;12.52;100.00;95319.77;652805;216;24869;-73
2022/05/25 06:24:49;;;;;;;;;;;11.70;1.40;;;12.70;100.00;95321.73;653672;216;24753;-74
2022/05/25 06:27:31;;;;;;;;;;;11.90;1.40;;;12.76;100.00;95322.25;652964;216;25272;-75
2022/05/25 06:30:12;;;;;;;;;;;12.00;1.40;;;12.93;100.00;95322.69;653971;216;24805;-74
2022/05/25 06:32:54;;;;;;;;;;;12.00;1.40;;;12.92;100.00;95334.30;653492;216;24859;-74
2022/05/25 06:35:51;;;;;;;0.88;0.88;;;12.00;1.40;;;12.93;100.00;95340.48;647146;216;31748;-74
2022/05/25 06:38:33;;;;;;;1.60;0.82;;;12.00;1.40;;;12.84;100.00;95349.36;645787;216;42254;-75
2022/05/25 06:41:18;;;;;;;1.23;0.60;;;12.00;1.40;;;12.93;100.00;95354.24;645469;214;31720;-74
2022/05/25 06:44:00;;;;;;;1.10;0.90;;;12.10;1.40;;;12.86;100.00;95357.43;646597;213;42221;-74
2022/05/25 06:46:41;;;;;;;4.30;0.93;;;12.10;1.40;;;13.08;100.00;95362.13;647513;216;33959;-74
2022/05/25 06:49:23;;;;;;;1.35;0.70;;;12.20;1.40;;;13.30;100.00;95362.75;647483;216;31530;-75
2022/05/25 06:52:09;;;;;;;0.98;0.60;;;12.50;1.40;;;13.34;100.00;95365.33;645808;216;34133;-74
2022/05/25 06:54:53;;;;;;;1.42;1.00;;;12.40;1.40;;;13.32;100.00;95364.84;619614;226;32578;-74
2022/05/25 06:57:37;;;;;;;0.95;0.85;;;12.40;1.40;;;13.40;100.00;95365.83;647097;216;31542;-74
2022/05/25 07:00:19;;;;;;;1.15;1.05;;;12.50;1.40;;;13.61;100.00;95369.31;646758;216;42128;-74
2022/05/25 07:03:03;;;;;;;1.50;0.70;;;12.70;1.40;;;13.73;100.00;95368.98;619119;226;32910;-75
2022/05/25 07:05:45;;;;;;;0.80;0.70;;;12.70;1.40;;;13.81;100.00;95373.20;646583;216;31544;-74
2022/05/25 07:08:26;;;;;;;0.80;0.70;;;12.80;1.40;;;13.69;100.00;95371.88;643653;216;43324;-74
2022/05/25 07:11:09;;;;;;;0.40;0.40;;;12.70;1.40;;;13.74;100.00;95376.27;619621;226;32107;-74
2022/05/25 07:13:50;;;;;;;0.60;0.40;;;12.80;1.40;;;13.41;100.00;95384.13;647061;216;31568;-74
2022/05/25 07:19:06;;;;;;;0.40;0.40;;;12.50;1.40;;;13.13;100.00;95399.09;619162;226;31868;-74
2022/05/25 07:21:48;;;;;;;2.30;0.60;;;12.40;1.40;;;12.91;100.00;95400.69;646790;212;31524;-74
2022/05/25 07:24:29;;;;;;;0.73;0.45;;;12.20;1.40;;;12.88;100.00;95405.45;645611;216;42731;-74
2022/05/25 07:27:11;;;;;;;0.50;0.40;;;12.20;1.40;;;13.18;100.00;95398.39;647072;212;32088;-75
2022/05/25 07:29:53;;;;;;;0.60;0.50;;;12.50;1.40;;;13.46;100.00;95393.05;646715;216;31501;-74
2022/05/25 07:32:34;;;;;;;0.40;0.20;;;12.60;1.40;;;13.68;100.00;95394.09;646963;216;31641;-74
2022/05/25 07:35:51;;;;;;;0.82;0.40;;;12.90;1.40;;;13.42;100.00;95400.31;645635;216;31558;-74
2022/05/25 07:38:33;;;;;;;1.60;0.93;;;12.60;1.40;;;13.17;100.00;95399.97;647551;216;42457;-74
2022/05/25 07:41:15;;;;;;;0.50;0.30;;;12.50;1.40;;;13.35;100.00;95397.86;618393;225;42461;-74
2022/05/25 07:43:59;;;;;;;0.65;0.65;;;12.70;1.40;;;13.42;100.00;95396.09;646885;216;32069;-74
2022/05/25 07:46:41;;;;;;;0.90;0.80;;;12.70;1.40;;;13.22;100.00;95392.80;646253;212;31582;-75
2022/05/25 07:49:23;;;;;;;0.70;0.70;;;12.60;1.40;;;13.07;100.00;95397.80;647355;212;31562;-74
2022/05/25 07:52:07;;;;;;;0.60;0.30;;;12.50;1.40;;;13.06;100.00;95395.28;646784;215;31486;-74
2022/05/25 07:54:49;;;;;;;0.50;0.47;;;12.50;1.40;;;12.99;100.00;95395.92;646925;216;42300;-75
2022/05/25 07:57:31;;;;;;;0.50;0.40;;;12.40;1.40;;;12.90;100.00;95406.33;618573;226;42507;-74
2022/05/25 08:00:14;;;;;;;0.43;0.40;;;12.40;1.40;;;12.93;100.00;95401.92;645778;216;42115;-74
2022/05/25 08:05:48;;;;;;;0.40;0.40;;;12.50;1.40;;;13.06;100.00;95401.28;646703;216;42875;-75
2022/05/25 08:08:30;;;;;;;0.80;0.50;;;12.50;1.40;;;13.04;100.00;95404.55;644797;212;42960;-74
2022/05/25 08:11:11;;;;;;;0.60;0.40;;;12.60;1.40;;;13.48;100.00;95408.28;646199;216;32135;-74
2022/05/25 08:13:53;;;;;;;0.50;0.30;;;13.10;1.40;;;13.74;100.00;95420.08;618596;226;31867;-74
2022/05/25 08:16:34;;;;;;;0.40;0.22;;;13.20;1.40;;;13.55;100.00;95420.95;647135;216;31495;-75
2022/05/25 08:19:16;;;;;;;0.70;0.50;;;13.20;1.40;;;13.79;100.00;95424.83;646103;216;31486;-74
2022/05/25 08:21:58;;;;;;;0.65;0.50;;;13.50;1.40;;;14.05;100.00;95423.03;647326;216;31712;-75
2022/05/25 08:24:40;;;;;;;0.57;0.40;;;13.70;1.40;;;14.14;100.00;95424.91;647036;216;31475;-74
2022/05/25 08:27:21;;;;;;;0.80;0.40;;;13.80;1.40;;;14.61;100.00;95425.16;647124;216;31533;-74
2022/05/25 08:30:04;;;;;;;0.80;0.30;;;14.10;1.40;;;15.21;100.00;95435.33;646427;216;31456;-74
2022/05/25 08:32:46;;;;;;;0.40;0.20;;;14.60;1.40;;;15.61;100.00;95452.27;645508;212;31496;-74
2022/05/25 08:35:53;;;;;;;1.20;0.47;;;14.60;1.40;;;15.94;100.00;95470.73;646176;216;31527;-74
2022/05/25 08:38:34;;;;;;;0.40;0.30;;;15.00;1.40;;;16.50;100.00;95474.78;647857;216;31463;-74
2022/05/25 08:41:16;;;;;;;0.45;0.30;;;15.30;1.40;;;16.84;100.00;95481.04;646689;216;31473;-74
2022/05/25 08:43:58;;;;;;;0.40;0.20;;;15.50;1.40;;;17.10;100.00;95483.56;646433;216;31481;-74
2022/05/25 08:46:40;;;;;;;0.60;0.30;;;15.70;1.40;;;16.79;100.00;95479.89;647193;216;31575;-74
2022/05/25 08:49:21;;;;;;;0.40;0.30;;;15.50;1.40;;;16.75;100.00;95485.61;645440;216;31471;-75
2022/05/25 08:52:04;;;;;;;0.50;0.30;;;15.50;1.40;;;16.50;100.00;95492.98;646129;212;31907;-74
2022/05/25 08:54:47;;;;;;;1.62;0.70;;;15.10;1.40;;;16.28;100.00;95487.69;647634;216;31501;-75
2022/05/25 08:57:33;;;;;;;0.40;0.25;;;14.70;1.40;;;16.11;100.00;95485.75;647084;216;31467;-74
2022/05/25 09:00:16;;;;;;;0.40;0.20;;;14.70;1.40;;;15.86;100.00;95491.67;647308;216;31472;-74
2022/05/25 09:03:32;;;;;;;0.60;0.40;;;14.50;1.40;;;15.65;100.00;95491.83;630782;221;31834;-74
2022/05/25 09:06:14;;;;;;;0.80;0.40;;;14.50;1.40;;;15.81;100.00;95489.60;646267;216;31463;-74
2022/05/25 09:09:04;;;;;;;0.40;0.20;;;14.70;1.40;;;16.24;100.00;95491.21;641838;216;31912;-75
2022/05/25 09:11:48;;;;;;;1.33;0.30;;;14.80;1.40;;;16.18;100.00;95495.58;646850;216;31634;-75
2022/05/25 09:14:34;;;;;;;0.50;0.30;;;15.00;1.40;;;16.09;100.00;95494.06;645871;212;31801;-75
2022/05/25 09:17:22;;;;;;;0.50;0.30;;;14.70;1.40;;;16.34;100.00;95491.72;646456;216;32042;-74
2022/05/25 09:20:13;;;;;;;0.40;0.30;;;15.00;1.40;;;16.80;100.00;95494.69;648504;212;31586;-77
2022/05/25 09:22:58;;;;;;;0.90;0.35;;;15.20;1.40;;;17.01;100.00;95500.06;646750;216;31562;-75
2022/05/25 09:25:39;;;;;;;0.50;0.40;;;15.30;1.40;;;17.02;100.00;95504.91;646627;216;31461;-75
2022/05/25 09:28:28;;;;;;;0.70;0.50;;;15.40;1.40;;;17.30;100.00;95502.13;631323;221;31629;-77
2022/05/25 09:31:10;;;;;;;0.40;0.30;;;15.80;1.40;;;17.40;100.00;95510.58;647535;212;31590;-76
2022/05/25 09:36:01;;;;;;;0.90;0.40;;;15.50;1.40;;;17.58;100.00;95500.27;646474;216;31507;-77
2022/05/25 09:38:46;;;;;;;0.80;0.30;;;15.60;1.40;;;17.16;100.00;95499.78;619261;222;31959;-77
2022/05/25 09:41:31;;;;;;;0.40;0.20;;;15.50;1.40;;;16.60;100.00;95508.83;647159;216;31996;-74
2022/05/25 09:44:11;;;;;;;0.50;0.30;;;15.10;1.40;;;16.40;100.00;95508.16;645555;216;32085;-74
2022/05/25 09:47:04;;;;;;;0.60;0.35;;;15.30;1.40;;;16.99;100.00;95506.78;647291;216;31491;-77
2022/05/25 09:49:47;;;;;;;0.40;0.30;;;16.00;1.40;;;17.94;100.00;95503.23;647151;216;31484;-75
2022/05/25 09:52:36;;;;;;;0.57;0.40;;;17.00;1.40;;;17.69;100.00;95512.89;618589;223;32592;-78
2022/05/25 09:55:26;;;;;;;0.45;0.30;;;16.20;1.40;;;17.70;100.00;95519.68;646954;216;31472;-75
2022/05/25 09:58:31;;;;;;;0.40;0.40;;;16.40;1.40;;;18.00;100.00;95520.34;646464;212;42225;-76
2022/05/25 10:01:30;;;;;;;0.40;0.30;;;17.20;1.40;;;18.80;100.00;95509.38;646597;216;31492;-74
2022/05/25 10:06:56;;;;;;;0.60;0.30;;;19.50;1.40;;;20.23;100.00;95510.23;646076;216;31517;-74
2022/05/25 10:09:39;;;;;;;0.40;0.30;;;18.70;1.40;;;19.71;100.00;95511.36;639346;212;32184;-76
2022/05/25 10:12:26;;;;;;;0.55;0.35;;;17.30;1.40;;;19.58;100.00;95517.10;647757;216;37803;-76
2022/05/25 10:15:10;;;;;;;0.90;0.50;;;17.00;1.40;;;18.72;100.00;95515.69;646010;216;31536;-75
2022/05/25 10:17:54;;;;;;;0.40;0.30;;;16.40;1.40;;;18.50;100.00;95521.16;646308;216;31478;-77
2022/05/25 10:20:49;;;;;;;0.60;0.40;;;16.80;1.40;;;17.84;100.00;95525.92;647424;212;31659;-75
2022/05/25 10:23:37;;;;;;;0.40;0.30;;;16.20;1.40;;;17.74;100.00;95523.73;646980;212;31550;-76
2022/05/25 10:26:25;;;;;;;0.40;0.30;;;16.40;1.40;;;20.17;100.00;95515.67;647569;216;31510;-77
2022/05/25 10:39:33;;;;;;;0.40;0.28;;;19.40;1.40;;;20.82;98.50;95515.09;618403;226;32326;-76
2022/05/25 10:42:22;;;;;;;0.50;0.30;;;19.00;1.40;;;19.98;100.00;95515.64;647380;216;31599;-76
2022/05/25 10:45:28;;;;;;;0.50;0.30;;;18.30;1.40;;;19.42;100.00;95516.58;646592;216;31471;-80
2022/05/25 10:50:51;;;;;;;0.50;0.30;;;20.00;1.40;;;20.64;88.48;95507.84;616670;227;31863;-78
2022/05/25 10:54:44;;;;;;;0.67;0.40;;;17.80;1.40;;;21.30;93.33;95511.95;645514;216;31445;-76
2022/05/25 10:56:40;;;;;;;0.68;0.30;;;19.50;1.40;;;20.67;84.61;95514.28;620033;222;33818;-77
2022/05/25 10:59:39;;;;;;;0.50;0.30;;;18.40;1.40;;;21.20;86.45;95514.83;619698;226;31940;-77
2022/05/25 11:02:45;;;;;;;0.60;0.40;;;19.60;1.40;;;23.91;78.82;95506.85;646506;212;42271;-76
2022/05/25 11:05:44;;;;;;;0.80;0.40;;;22.50;1.40;;;23.84;71.48;95517.49;646538;216;31563;-77
2022/05/25 11:14:53;;;;;;;1.30;0.40;;;22.70;1.40;;;26.44;59.83;95504.63;646063;216;32063;-76
2022/05/25 11:18:12;;;;;;;0.70;0.40;;;21.60;1.40;;;23.24;65.71;95509.70;645722;212;31509;-77
2022/05/25 11:21:17;;;;;;;0.52;0.40;;;19.60;1.40;;;24.06;73.45;95513.73;618824;226;32444;-76
2022/05/25 11:24:29;;;;;;;0.50;0.32;;;19.50;1.40;;;22.91;69.64;95512.39;646447;216;42132;-77
2022/05/25 11:27:17;;;;;;;0.75;0.30;;;19.50;1.40;;;21.52;70.49;95519.52;647461;212;31459;-76
2022/05/25 11:30:01;;;;;;;0.50;0.30;;;18.90;1.40;;;21.18;76.62;95517.05;646980;216;32017;-76
2022/05/25 11:36:12;;;;;;;0.73;0.30;;;18.30;1.40;;;19.89;85.39;95525.75;618862;225;32401;-76
2022/05/25 11:39:02;;;;;;;0.50;0.40;;;17.70;1.40;;;19.90;92.20;95523.92;647127;216;31503;-76
2022/05/25 11:41:55;;;;;;;3.50;0.40;;;17.80;1.40;;;19.99;93.78;95525.55;647238;216;42213;-76
2022/05/25 11:47:25;;;;;;;1.33;0.55;;;17.40;1.40;;;19.25;96.20;95532.61;647466;216;31595;-76
2022/05/25 11:50:18;;;;;;;0.43;0.30;;;17.30;1.40;;;18.94;99.26;95528.84;647441;216;31568;-76
2022/05/25 11:53:12;;;;;;;0.50;0.40;;;17.00;1.40;;;18.03;100.00;95533.40;646181;212;31975;-76
2022/05/25 11:56:00;;;;;;;0.40;0.30;;;16.60;1.40;;;17.78;98.30;95529.59;647662;216;31644;-76
2022/05/25 11:58:59;;;;;;;0.40;0.30;;;16.60;1.40;;;17.88;99.95;95531.81;648246;216;31581;-76
2022/05/25 12:01:46;;;;;;;0.50;0.40;;;16.70;1.40;;;18.01;100.00;95534.95;646870;216;31625;-76
2022/05/25 12:05:11;;;;;;;0.70;0.40;;;16.70;1.40;;;18.31;100.00;95527.87;619045;226;31806;-76
2022/05/25 12:08:10;;;;;;;0.60;0.40;;;17.10;1.40;;;18.38;100.00;95534.56;646571;216;31478;-76
2022/05/25 12:11:03;;;;;;;0.50;0.40;;;17.30;1.40;;;18.20;100.00;95540.08;646799;216;42124;-76
2022/05/25 12:13:47;;;;;;;0.40;0.30;;;17.20;1.40;;;18.41;100.00;95534.44;646649;216;31553;-76
2022/05/25 12:16:29;;;;;;;0.60;0.50;;;17.10;1.40;;;18.59;100.00;95535.39;647080;216;31562;-76
2022/05/25 12:19:18;;;;;;;0.43;0.40;;;16.80;1.40;;;18.18;100.00;95543.70;645841;216;31975;-76
2022/05/25 12:22:02;;;;;;;0.63;0.53;;;16.60;1.40;;;17.99;100.00;95539.11;646240;212;31471;-76
2022/05/25 12:24:48;;;;;;;0.50;0.30;;;16.60;1.40;;;17.83;100.00;95540.64;646670;216;42684;-76
2022/05/25 12:27:35;;;;;;;0.60;0.40;;;16.60;1.40;;;18.03;100.00;95537.47;648347;212;31644;-80
2022/05/25 12:30:32;;;;;;;0.60;0.30;;;16.70;1.40;;;18.00;100.00;95538.00;646179;216;31495;-76
2022/05/25 12:35:51;;;;;;;0.60;0.60;;;16.70;1.40;;;18.37;100.00;95533.33;631217;222;31715;-76
2022/05/25 12:38:33;;;;;;;0.40;0.40;;;16.90;1.40;;;18.39;100.00;95535.56;646878;216;31572;-76
2022/05/25 12:41:32;;;;;;;0.73;0.50;;;16.80;1.40;;;18.01;100.00;95541.50;647319;216;31538;-76
2022/05/25 12:50:33;;;;;;;0.60;0.40;;;16.60;1.40;;;17.54;100.00;95548.61;646390;216;31504;-76
2022/05/25 12:53:31;;;;;;;0.57;0.30;;;16.40;1.40;;;17.83;100.00;95552.21;647132;212;31511;-76
2022/05/25 12:56:32;;;;;;;0.80;0.40;;;16.50;1.40;;;17.82;100.00;95551.30;646425;216;42751;-76
2022/05/25 12:59:13;;;;;;;0.50;0.30;;;16.60;1.40;;;17.71;100.00;95552.55;646190;216;31455;-76